sensor_id;sensor_type;location;lat;lon;timestamp;P1;durP1;ratioP1;P2;durP2;ratioP2
7661;SDS011;30314;48.184;11.510;2023-05-14T00:00:21;19.30;;;10.77;;
7661;SDS011;30314;48.184;11.510;2023-05-14T00:02:48;17.40;;;10.87;;
7661;SDS011;30314;48.184;11.510;2023-05-14T00:05:14;20.33;;;10.43;;
7661;SDS011;30314;48.184;11.510;2023-05-14T00:07:42;16.80;;;10.10;;
7661;SDS011;30314;48.184;11.510;2023-05-14T00:10:08;15.40;;;9.83;;
7661;SDS011;30314;48.184;11.510;2023-05-14T00:12:35;17.30;;;11.00;;
7661;SDS011;30314;48.184;11.510;2023-05-14T00:15:02;17.07;;;10.10;;
7661;SDS011;30314;48.184;11.510;2023-05-14T00:17:29;18.27;;;11.50;;
7661;SDS011;30314;48.184;11.510;2023-05-14T00:19:56;16.77;;;11.70;;
7661;SDS011;30314;48.184;11.510;2023-05-14T00:22:22;19.87;;;11.70;;
7661;SDS011;30314;48.184;11.510;2023-05-14T00:24:49;19.17;;;11.13;;
7661;SDS011;30314;48.184;11.510;2023-05-14T00:27:15;16.70;;;10.30;;
7661;SDS011;30314;48.184;11.510;2023-05-14T00:29:42;15.20;;;9.53;;
7661;SDS011;30314;48.184;11.510;2023-05-14T00:32:09;18.10;;;11.00;;
7661;SDS011;30314;48.184;11.510;2023-05-14T00:34:36;16.67;;;10.27;;
7661;SDS011;30314;48.184;11.510;2023-05-14T00:37:02;18.47;;;9.90;;
7661;SDS011;30314;48.184;11.510;2023-05-14T00:39:29;15.97;;;10.73;;
7661;SDS011;30314;48.184;11.510;2023-05-14T00:41:55;15.07;;;9.50;;
7661;SDS011;30314;48.184;11.510;2023-05-14T00:44:22;20.10;;;11.60;;
7661;SDS011;30314;48.184;11.510;2023-05-14T00:46:48;17.13;;;11.53;;
7661;SDS011;30314;48.184;11.510;2023-05-14T00:49:15;21.43;;;11.50;;
7661;SDS011;30314;48.184;11.510;2023-05-14T00:51:43;20.93;;;11.90;;
7661;SDS011;30314;48.184;11.510;2023-05-14T00:54:15;24.00;;;11.50;;
7661;SDS011;30314;48.184;11.510;2023-05-14T00:56:43;16.30;;;10.60;;
7661;SDS011;30314;48.184;11.510;2023-05-14T00:59:11;16.90;;;11.40;;
7661;SDS011;30314;48.184;11.510;2023-05-14T01:01:39;19.97;;;11.67;;
7661;SDS011;30314;48.184;11.510;2023-05-14T01:04:05;17.83;;;10.50;;
7661;SDS011;30314;48.184;11.510;2023-05-14T01:09:26;15.97;;;11.80;;
7661;SDS011;30314;48.184;11.510;2023-05-14T01:15:08;16.07;;;10.90;;
7661;SDS011;30314;48.184;11.510;2023-05-14T01:17:40;17.20;;;11.17;;
7661;SDS011;30314;48.184;11.510;2023-05-14T01:20:10;19.43;;;11.73;;
7661;SDS011;30314;48.184;11.510;2023-05-14T01:22:37;17.93;;;11.63;;
7661;SDS011;30314;48.184;11.510;2023-05-14T01:25:04;18.70;;;11.47;;
7661;SDS011;30314;48.184;11.510;2023-05-14T01:27:37;19.73;;;13.00;;
7661;SDS011;30314;48.184;11.510;2023-05-14T01:30:18;19.70;;;12.07;;
7661;SDS011;30314;48.184;11.510;2023-05-14T01:32:50;20.97;;;12.07;;
7661;SDS011;30314;48.184;11.510;2023-05-14T01:35:19;19.77;;;11.20;;
7661;SDS011;30314;48.184;11.510;2023-05-14T01:37:49;17.10;;;11.90;;
7661;SDS011;30314;48.184;11.510;2023-05-14T01:40:18;19.67;;;11.87;;
7661;SDS011;30314;48.184;11.510;2023-05-14T01:42:45;17.67;;;11.60;;
7661;SDS011;30314;48.184;11.510;2023-05-14T01:45:12;18.10;;;11.03;;
7661;SDS011;30314;48.184;11.510;2023-05-14T01:47:38;25.63;;;13.20;;
7661;SDS011;30314;48.184;11.510;2023-05-14T01:50:05;16.80;;;11.93;;
7661;SDS011;30314;48.184;11.510;2023-05-14T01:52:32;24.60;;;12.03;;
7661;SDS011;30314;48.184;11.510;2023-05-14T01:54:59;18.00;;;11.93;;
7661;SDS011;30314;48.184;11.510;2023-05-14T01:57:25;21.90;;;11.70;;
7661;SDS011;30314;48.184;11.510;2023-05-14T01:59:52;14.03;;;11.50;;
7661;SDS011;30314;48.184;11.510;2023-05-14T02:02:18;20.40;;;12.57;;
7661;SDS011;30314;48.184;11.510;2023-05-14T02:04:45;17.73;;;12.10;;
7661;SDS011;30314;48.184;11.510;2023-05-14T02:07:12;30.20;;;12.80;;
7661;SDS011;30314;48.184;11.510;2023-05-14T02:09:38;18.10;;;11.57;;
7661;SDS011;30314;48.184;11.510;2023-05-14T02:12:07;20.53;;;12.23;;
7661;SDS011;30314;48.184;11.510;2023-05-14T02:14:34;20.20;;;12.90;;
7661;SDS011;30314;48.184;11.510;2023-05-14T02:17:01;18.40;;;11.53;;
7661;SDS011;30314;48.184;11.510;2023-05-14T02:19:28;19.33;;;12.10;;
7661;SDS011;30314;48.184;11.510;2023-05-14T02:21:57;17.23;;;10.80;;
7661;SDS011;30314;48.184;11.510;2023-05-14T02:24:24;16.93;;;11.37;;
7661;SDS011;30314;48.184;11.510;2023-05-14T02:26:51;18.27;;;10.10;;
7661;SDS011;30314;48.184;11.510;2023-05-14T02:29:17;15.20;;;11.07;;
7661;SDS011;30314;48.184;11.510;2023-05-14T02:31:44;16.57;;;11.20;;
7661;SDS011;30314;48.184;11.510;2023-05-14T02:34:10;17.63;;;11.07;;
7661;SDS011;30314;48.184;11.510;2023-05-14T02:36:37;13.67;;;10.33;;
7661;SDS011;30314;48.184;11.510;2023-05-14T02:39:03;18.80;;;10.77;;
7661;SDS011;30314;48.184;11.510;2023-05-14T02:41:30;16.60;;;10.70;;
7661;SDS011;30314;48.184;11.510;2023-05-14T02:43:56;17.20;;;11.53;;
7661;SDS011;30314;48.184;11.510;2023-05-14T02:46:23;16.13;;;11.33;;
7661;SDS011;30314;48.184;11.510;2023-05-14T02:48:50;18.47;;;11.57;;
7661;SDS011;30314;48.184;11.510;2023-05-14T02:51:18;18.67;;;10.93;;
7661;SDS011;30314;48.184;11.510;2023-05-14T02:53:45;15.33;;;10.00;;
7661;SDS011;30314;48.184;11.510;2023-05-14T02:56:12;18.00;;;10.47;;
7661;SDS011;30314;48.184;11.510;2023-05-14T02:58:38;15.97;;;10.53;;
7661;SDS011;30314;48.184;11.510;2023-05-14T03:01:05;17.70;;;11.90;;
7661;SDS011;30314;48.184;11.510;2023-05-14T03:03:32;17.10;;;11.23;;
7661;SDS011;30314;48.184;11.510;2023-05-14T03:06:00;16.97;;;11.07;;
7661;SDS011;30314;48.184;11.510;2023-05-14T03:08:26;16.43;;;11.33;;
7661;SDS011;30314;48.184;11.510;2023-05-14T03:10:53;15.37;;;10.70;;
7661;SDS011;30314;48.184;11.510;2023-05-14T03:13:19;16.23;;;11.03;;
7661;SDS011;30314;48.184;11.510;2023-05-14T03:15:46;14.77;;;10.47;;
7661;SDS011;30314;48.184;11.510;2023-05-14T03:18:13;15.63;;;10.90;;
7661;SDS011;30314;48.184;11.510;2023-05-14T03:20:40;16.93;;;10.40;;
7661;SDS011;30314;48.184;11.510;2023-05-14T03:23:07;19.80;;;12.03;;
7661;SDS011;30314;48.184;11.510;2023-05-14T03:25:35;17.60;;;11.70;;
7661;SDS011;30314;48.184;11.510;2023-05-14T03:28:02;18.90;;;11.27;;
7661;SDS011;30314;48.184;11.510;2023-05-14T03:30:29;14.83;;;10.37;;
7661;SDS011;30314;48.184;11.510;2023-05-14T03:32:55;21.90;;;12.13;;
7661;SDS011;30314;48.184;11.510;2023-05-14T03:35:22;19.27;;;10.33;;
7661;SDS011;30314;48.184;11.510;2023-05-14T03:37:48;19.33;;;11.80;;
7661;SDS011;30314;48.184;11.510;2023-05-14T03:40:16;20.93;;;12.73;;
7661;SDS011;30314;48.184;11.510;2023-05-14T03:42:42;19.13;;;12.00;;
7661;SDS011;30314;48.184;11.510;2023-05-14T03:45:09;28.37;;;14.27;;
7661;SDS011;30314;48.184;11.510;2023-05-14T03:47:35;25.00;;;14.30;;
7661;SDS011;30314;48.184;11.510;2023-05-14T03:50:02;24.83;;;13.07;;
7661;SDS011;30314;48.184;11.510;2023-05-14T03:52:29;23.30;;;12.93;;
7661;SDS011;30314;48.184;11.510;2023-05-14T03:54:55;20.63;;;12.40;;
7661;SDS011;30314;48.184;11.510;2023-05-14T03:57:22;22.13;;;13.10;;
7661;SDS011;30314;48.184;11.510;2023-05-14T03:59:48;21.30;;;13.13;;
7661;SDS011;30314;48.184;11.510;2023-05-14T04:02:15;22.73;;;13.40;;
7661;SDS011;30314;48.184;11.510;2023-05-14T04:04:42;20.17;;;12.90;;
7661;SDS011;30314;48.184;11.510;2023-05-14T04:07:08;24.97;;;13.60;;
7661;SDS011;30314;48.184;11.510;2023-05-14T04:09:35;25.87;;;14.37;;
7661;SDS011;30314;48.184;11.510;2023-05-14T04:12:01;19.20;;;12.23;;
7661;SDS011;30314;48.184;11.510;2023-05-14T04:14:28;20.13;;;12.03;;
7661;SDS011;30314;48.184;11.510;2023-05-14T04:16:55;24.77;;;12.90;;
7661;SDS011;30314;48.184;11.510;2023-05-14T04:19:21;18.63;;;11.60;;
7661;SDS011;30314;48.184;11.510;2023-05-14T04:21:48;27.80;;;13.63;;
7661;SDS011;30314;48.184;11.510;2023-05-14T04:24:15;19.87;;;11.90;;
7661;SDS011;30314;48.184;11.510;2023-05-14T04:26:42;25.23;;;13.57;;
7661;SDS011;30314;48.184;11.510;2023-05-14T04:29:08;17.53;;;12.17;;
7661;SDS011;30314;48.184;11.510;2023-05-14T04:31:35;25.57;;;12.80;;
7661;SDS011;30314;48.184;11.510;2023-05-14T04:34:01;24.10;;;12.87;;
7661;SDS011;30314;48.184;11.510;2023-05-14T04:36:28;21.50;;;13.57;;
7661;SDS011;30314;48.184;11.510;2023-05-14T04:38:54;19.40;;;12.90;;
7661;SDS011;30314;48.184;11.510;2023-05-14T04:41:21;21.17;;;13.27;;
7661;SDS011;30314;48.184;11.510;2023-05-14T04:43:48;18.70;;;12.40;;
7661;SDS011;30314;48.184;11.510;2023-05-14T04:46:16;25.30;;;15.37;;
7661;SDS011;30314;48.184;11.510;2023-05-14T04:48:42;25.03;;;15.23;;
7661;SDS011;30314;48.184;11.510;2023-05-14T04:51:09;21.43;;;14.20;;
7661;SDS011;30314;48.184;11.510;2023-05-14T04:53:35;26.40;;;14.87;;
7661;SDS011;30314;48.184;11.510;2023-05-14T04:56:01;22.10;;;14.00;;
7661;SDS011;30314;48.184;11.510;2023-05-14T04:58:28;24.10;;;14.90;;
7661;SDS011;30314;48.184;11.510;2023-05-14T05:01:00;32.10;;;16.13;;
7661;SDS011;30314;48.184;11.510;2023-05-14T05:03:28;26.00;;;15.07;;
7661;SDS011;30314;48.184;11.510;2023-05-14T05:05:54;25.77;;;14.20;;
7661;SDS011;30314;48.184;11.510;2023-05-14T05:08:21;28.57;;;16.13;;
7661;SDS011;30314;48.184;11.510;2023-05-14T05:10:48;26.30;;;14.40;;
7661;SDS011;30314;48.184;11.510;2023-05-14T05:13:14;31.20;;;14.90;;
7661;SDS011;30314;48.184;11.510;2023-05-14T05:15:42;32.10;;;14.97;;
7661;SDS011;30314;48.184;11.510;2023-05-14T05:18:09;27.23;;;14.67;;
7661;SDS011;30314;48.184;11.510;2023-05-14T05:20:35;27.00;;;15.10;;
7661;SDS011;30314;48.184;11.510;2023-05-14T05:23:02;28.13;;;15.00;;
7661;SDS011;30314;48.184;11.510;2023-05-14T05:25:28;32.03;;;15.20;;
7661;SDS011;30314;48.184;11.510;2023-05-14T05:27:55;26.47;;;15.50;;
7661;SDS011;30314;48.184;11.510;2023-05-14T05:30:21;26.23;;;15.10;;
7661;SDS011;30314;48.184;11.510;2023-05-14T05:32:48;27.23;;;14.83;;
7661;SDS011;30314;48.184;11.510;2023-05-14T05:35:15;25.47;;;13.93;;
7661;SDS011;30314;48.184;11.510;2023-05-14T05:37:42;25.47;;;15.17;;
7661;SDS011;30314;48.184;11.510;2023-05-14T05:40:10;27.77;;;15.70;;
7661;SDS011;30314;48.184;11.510;2023-05-14T05:42:39;34.10;;;15.40;;
7661;SDS011;30314;48.184;11.510;2023-05-14T05:45:07;24.80;;;13.20;;
7661;SDS011;30314;48.184;11.510;2023-05-14T05:47:34;27.60;;;14.40;;
7661;SDS011;30314;48.184;11.510;2023-05-14T05:50:00;31.50;;;15.80;;
7661;SDS011;30314;48.184;11.510;2023-05-14T05:52:27;25.17;;;14.70;;
7661;SDS011;30314;48.184;11.510;2023-05-14T05:54:53;26.10;;;14.27;;
7661;SDS011;30314;48.184;11.510;2023-05-14T05:57:20;22.10;;;12.90;;
7661;SDS011;30314;48.184;11.510;2023-05-14T05:59:51;24.03;;;14.00;;
7661;SDS011;30314;48.184;11.510;2023-05-14T06:02:18;29.13;;;14.73;;
7661;SDS011;30314;48.184;11.510;2023-05-14T06:04:45;32.70;;;15.70;;
7661;SDS011;30314;48.184;11.510;2023-05-14T06:07:12;29.23;;;15.23;;
7661;SDS011;30314;48.184;11.510;2023-05-14T06:09:38;28.20;;;15.37;;
7661;SDS011;30314;48.184;11.510;2023-05-14T06:12:05;29.00;;;16.47;;
7661;SDS011;30314;48.184;11.510;2023-05-14T06:14:32;25.97;;;14.00;;
7661;SDS011;30314;48.184;11.510;2023-05-14T06:16:58;25.10;;;15.37;;
7661;SDS011;30314;48.184;11.510;2023-05-14T06:19:25;30.30;;;13.70;;
7661;SDS011;30314;48.184;11.510;2023-05-14T06:21:51;24.10;;;14.80;;
7661;SDS011;30314;48.184;11.510;2023-05-14T06:24:18;26.43;;;14.90;;
7661;SDS011;30314;48.184;11.510;2023-05-14T06:26:45;32.87;;;15.80;;
7661;SDS011;30314;48.184;11.510;2023-05-14T06:29:13;25.53;;;13.73;;
7661;SDS011;30314;48.184;11.510;2023-05-14T06:31:40;24.47;;;14.40;;
7661;SDS011;30314;48.184;11.510;2023-05-14T06:34:07;27.70;;;16.27;;
7661;SDS011;30314;48.184;11.510;2023-05-14T06:36:34;25.00;;;14.67;;
7661;SDS011;30314;48.184;11.510;2023-05-14T06:39:00;23.77;;;13.77;;
7661;SDS011;30314;48.184;11.510;2023-05-14T06:41:27;27.63;;;15.40;;
7661;SDS011;30314;48.184;11.510;2023-05-14T06:43:54;31.13;;;15.23;;
7661;SDS011;30314;48.184;11.510;2023-05-14T06:46:21;27.27;;;15.07;;
7661;SDS011;30314;48.184;11.510;2023-05-14T06:48:48;28.67;;;15.60;;
7661;SDS011;30314;48.184;11.510;2023-05-14T06:51:14;21.13;;;13.50;;
7661;SDS011;30314;48.184;11.510;2023-05-14T06:53:41;24.60;;;13.23;;
7661;SDS011;30314;48.184;11.510;2023-05-14T06:56:08;21.80;;;12.73;;
7661;SDS011;30314;48.184;11.510;2023-05-14T06:58:34;20.97;;;13.30;;
7661;SDS011;30314;48.184;11.510;2023-05-14T07:01:01;24.60;;;14.43;;
7661;SDS011;30314;48.184;11.510;2023-05-14T07:03:27;22.50;;;13.63;;
7661;SDS011;30314;48.184;11.510;2023-05-14T07:05:54;21.70;;;13.20;;
7661;SDS011;30314;48.184;11.510;2023-05-14T07:08:21;25.60;;;14.03;;
7661;SDS011;30314;48.184;11.510;2023-05-14T07:10:47;26.63;;;13.10;;
7661;SDS011;30314;48.184;11.510;2023-05-14T07:13:14;24.93;;;14.50;;
7661;SDS011;30314;48.184;11.510;2023-05-14T07:15:40;23.00;;;13.90;;
7661;SDS011;30314;48.184;11.510;2023-05-14T07:18:07;20.07;;;13.53;;
7661;SDS011;30314;48.184;11.510;2023-05-14T07:20:34;25.70;;;15.10;;
7661;SDS011;30314;48.184;11.510;2023-05-14T07:23:00;29.90;;;15.40;;
7661;SDS011;30314;48.184;11.510;2023-05-14T07:25:27;24.17;;;14.10;;
7661;SDS011;30314;48.184;11.510;2023-05-14T07:27:53;27.33;;;15.43;;
7661;SDS011;30314;48.184;11.510;2023-05-14T07:30:20;24.63;;;14.00;;
7661;SDS011;30314;48.184;11.510;2023-05-14T07:32:47;28.00;;;16.23;;
7661;SDS011;30314;48.184;11.510;2023-05-14T07:35:14;29.07;;;14.33;;
7661;SDS011;30314;48.184;11.510;2023-05-14T07:37:41;25.20;;;14.63;;
7661;SDS011;30314;48.184;11.510;2023-05-14T07:40:08;25.07;;;13.40;;
7661;SDS011;30314;48.184;11.510;2023-05-14T07:42:35;34.70;;;15.67;;
7661;SDS011;30314;48.184;11.510;2023-05-14T07:45:03;25.70;;;15.93;;
7661;SDS011;30314;48.184;11.510;2023-05-14T07:47:30;27.47;;;15.50;;
7661;SDS011;30314;48.184;11.510;2023-05-14T07:49:57;36.33;;;16.70;;
7661;SDS011;30314;48.184;11.510;2023-05-14T07:52:24;27.10;;;13.57;;
7661;SDS011;30314;48.184;11.510;2023-05-14T07:54:51;22.47;;;14.40;;
7661;SDS011;30314;48.184;11.510;2023-05-14T07:57:18;25.80;;;14.73;;
7661;SDS011;30314;48.184;11.510;2023-05-14T07:59:46;28.60;;;17.23;;
7661;SDS011;30314;48.184;11.510;2023-05-14T08:02:13;24.50;;;14.67;;
7661;SDS011;30314;48.184;11.510;2023-05-14T08:04:41;31.47;;;15.80;;
7661;SDS011;30314;48.184;11.510;2023-05-14T08:07:08;22.63;;;13.70;;
7661;SDS011;30314;48.184;11.510;2023-05-14T08:09:34;27.53;;;14.03;;
7661;SDS011;30314;48.184;11.510;2023-05-14T08:12:01;23.83;;;12.97;;
7661;SDS011;30314;48.184;11.510;2023-05-14T08:14:28;26.10;;;15.30;;
7661;SDS011;30314;48.184;11.510;2023-05-14T08:16:54;30.00;;;15.73;;
7661;SDS011;30314;48.184;11.510;2023-05-14T08:19:21;28.70;;;13.97;;
7661;SDS011;30314;48.184;11.510;2023-05-14T08:21:49;25.77;;;13.90;;
7661;SDS011;30314;48.184;11.510;2023-05-14T08:24:16;26.70;;;15.43;;
7661;SDS011;30314;48.184;11.510;2023-05-14T08:26:43;22.67;;;13.77;;
7661;SDS011;30314;48.184;11.510;2023-05-14T08:29:10;22.83;;;12.67;;
7661;SDS011;30314;48.184;11.510;2023-05-14T08:31:39;23.80;;;13.00;;
7661;SDS011;30314;48.184;11.510;2023-05-14T08:34:06;24.30;;;14.00;;
7661;SDS011;30314;48.184;11.510;2023-05-14T08:36:33;20.77;;;12.47;;
7661;SDS011;30314;48.184;11.510;2023-05-14T08:38:59;21.53;;;12.43;;
7661;SDS011;30314;48.184;11.510;2023-05-14T08:41:26;21.40;;;12.03;;
7661;SDS011;30314;48.184;11.510;2023-05-14T08:46:38;20.97;;;11.90;;
7661;SDS011;30314;48.184;11.510;2023-05-14T08:51:50;18.13;;;10.53;;
7661;SDS011;30314;48.184;11.510;2023-05-14T08:54:17;17.93;;;10.87;;
7661;SDS011;30314;48.184;11.510;2023-05-14T08:56:47;18.73;;;11.63;;
7661;SDS011;30314;48.184;11.510;2023-05-14T08:59:17;17.23;;;10.50;;
7661;SDS011;30314;48.184;11.510;2023-05-14T09:01:47;17.13;;;10.60;;
7661;SDS011;30314;48.184;11.510;2023-05-14T09:04:20;18.73;;;11.17;;
7661;SDS011;30314;48.184;11.510;2023-05-14T09:06:49;18.20;;;10.47;;
7661;SDS011;30314;48.184;11.510;2023-05-14T09:09:17;16.30;;;10.17;;
7661;SDS011;30314;48.184;11.510;2023-05-14T09:11:47;17.43;;;10.13;;
7661;SDS011;30314;48.184;11.510;2023-05-14T09:14:14;19.97;;;10.77;;
7661;SDS011;30314;48.184;11.510;2023-05-14T09:16:44;20.67;;;11.73;;
7661;SDS011;30314;48.184;11.510;2023-05-14T09:19:12;15.30;;;11.30;;
7661;SDS011;30314;48.184;11.510;2023-05-14T09:21:41;17.77;;;11.23;;
7661;SDS011;30314;48.184;11.510;2023-05-14T09:24:17;17.17;;;10.43;;
7661;SDS011;30314;48.184;11.510;2023-05-14T09:26:48;15.17;;;9.43;;
7661;SDS011;30314;48.184;11.510;2023-05-14T09:29:16;15.97;;;8.80;;
7661;SDS011;30314;48.184;11.510;2023-05-14T09:31:42;14.87;;;9.57;;
7661;SDS011;30314;48.184;11.510;2023-05-14T09:34:09;14.87;;;9.67;;
7661;SDS011;30314;48.184;11.510;2023-05-14T09:36:36;14.73;;;10.53;;
7661;SDS011;30314;48.184;11.510;2023-05-14T09:39:03;15.00;;;8.97;;
7661;SDS011;30314;48.184;11.510;2023-05-14T09:41:30;18.93;;;12.07;;
7661;SDS011;30314;48.184;11.510;2023-05-14T09:43:56;21.87;;;11.70;;
7661;SDS011;30314;48.184;11.510;2023-05-14T09:46:23;19.60;;;11.47;;
7661;SDS011;30314;48.184;11.510;2023-05-14T09:48:55;21.37;;;14.00;;
7661;SDS011;30314;48.184;11.510;2023-05-14T09:51:22;20.77;;;14.47;;
7661;SDS011;30314;48.184;11.510;2023-05-14T09:53:49;22.10;;;13.73;;
7661;SDS011;30314;48.184;11.510;2023-05-14T09:56:18;19.27;;;14.77;;
7661;SDS011;30314;48.184;11.510;2023-05-14T09:58:45;21.27;;;13.20;;
7661;SDS011;30314;48.184;11.510;2023-05-14T10:01:11;16.93;;;12.10;;
7661;SDS011;30314;48.184;11.510;2023-05-14T10:03:40;22.63;;;13.00;;
7661;SDS011;30314;48.184;11.510;2023-05-14T10:06:06;21.50;;;13.73;;
7661;SDS011;30314;48.184;11.510;2023-05-14T10:08:35;21.60;;;13.90;;
7661;SDS011;30314;48.184;11.510;2023-05-14T10:11:07;17.90;;;12.37;;
7661;SDS011;30314;48.184;11.510;2023-05-14T10:13:45;19.10;;;13.37;;
7661;SDS011;30314;48.184;11.510;2023-05-14T10:16:39;18.23;;;12.20;;
7661;SDS011;30314;48.184;11.510;2023-05-14T10:19:09;15.70;;;10.43;;
7661;SDS011;30314;48.184;11.510;2023-05-14T10:21:39;14.90;;;10.40;;
7661;SDS011;30314;48.184;11.510;2023-05-14T10:24:07;14.37;;;10.90;;
7661;SDS011;30314;48.184;11.510;2023-05-14T10:26:35;14.23;;;10.10;;
7661;SDS011;30314;48.184;11.510;2023-05-14T10:29:04;12.43;;;8.73;;
7661;SDS011;30314;48.184;11.510;2023-05-14T10:31:44;14.60;;;10.27;;
7661;SDS011;30314;48.184;11.510;2023-05-14T10:34:31;14.10;;;9.40;;
7661;SDS011;30314;48.184;11.510;2023-05-14T10:37:02;12.70;;;9.20;;
7661;SDS011;30314;48.184;11.510;2023-05-14T10:39:47;10.70;;;8.67;;
7661;SDS011;30314;48.184;11.510;2023-05-14T10:42:17;11.80;;;8.33;;
7661;SDS011;30314;48.184;11.510;2023-05-14T10:44:51;10.57;;;7.87;;
7661;SDS011;30314;48.184;11.510;2023-05-14T10:47:18;11.70;;;8.37;;
7661;SDS011;30314;48.184;11.510;2023-05-14T10:49:45;11.03;;;8.03;;
7661;SDS011;30314;48.184;11.510;2023-05-14T10:52:16;10.00;;;7.57;;
7661;SDS011;30314;48.184;11.510;2023-05-14T10:54:47;13.27;;;8.20;;
7661;SDS011;30314;48.184;11.510;2023-05-14T10:57:16;14.23;;;7.03;;
7661;SDS011;30314;48.184;11.510;2023-05-14T10:59:45;10.87;;;7.73;;
7661;SDS011;30314;48.184;11.510;2023-05-14T11:02:22;10.90;;;8.20;;
7661;SDS011;30314;48.184;11.510;2023-05-14T11:07:32;11.37;;;8.27;;
7661;SDS011;30314;48.184;11.510;2023-05-14T11:10:00;11.83;;;8.07;;
7661;SDS011;30314;48.184;11.510;2023-05-14T11:12:29;11.10;;;7.73;;
7661;SDS011;30314;48.184;11.510;2023-05-14T11:14:56;11.23;;;7.93;;
7661;SDS011;30314;48.184;11.510;2023-05-14T11:17:25;11.50;;;8.73;;
7661;SDS011;30314;48.184;11.510;2023-05-14T11:19:52;10.10;;;7.50;;
7661;SDS011;30314;48.184;11.510;2023-05-14T11:22:19;10.40;;;6.73;;
7661;SDS011;30314;48.184;11.510;2023-05-14T11:24:46;9.23;;;7.37;;
7661;SDS011;30314;48.184;11.510;2023-05-14T11:27:12;10.30;;;6.90;;
7661;SDS011;30314;48.184;11.510;2023-05-14T11:29:42;9.70;;;7.17;;
7661;SDS011;30314;48.184;11.510;2023-05-14T11:32:11;13.33;;;8.50;;
7661;SDS011;30314;48.184;11.510;2023-05-14T11:34:38;10.93;;;7.50;;
7661;SDS011;30314;48.184;11.510;2023-05-14T11:37:06;11.07;;;7.30;;
7661;SDS011;30314;48.184;11.510;2023-05-14T11:39:34;11.90;;;7.73;;
7661;SDS011;30314;48.184;11.510;2023-05-14T11:42:06;11.37;;;8.30;;
7661;SDS011;30314;48.184;11.510;2023-05-14T11:44:37;12.20;;;8.63;;
7661;SDS011;30314;48.184;11.510;2023-05-14T11:47:04;11.77;;;7.83;;
7661;SDS011;30314;48.184;11.510;2023-05-14T11:49:31;9.20;;;7.87;;
7661;SDS011;30314;48.184;11.510;2023-05-14T11:52:01;12.10;;;8.23;;
7661;SDS011;30314;48.184;11.510;2023-05-14T11:54:30;9.70;;;7.70;;
7661;SDS011;30314;48.184;11.510;2023-05-14T11:56:57;7.73;;;6.50;;
7661;SDS011;30314;48.184;11.510;2023-05-14T11:59:27;9.90;;;7.23;;
7661;SDS011;30314;48.184;11.510;2023-05-14T12:02:00;10.20;;;8.00;;
7661;SDS011;30314;48.184;11.510;2023-05-14T12:04:28;9.97;;;7.07;;
7661;SDS011;30314;48.184;11.510;2023-05-14T12:06:56;12.37;;;8.20;;
7661;SDS011;30314;48.184;11.510;2023-05-14T12:09:23;13.73;;;8.40;;
7661;SDS011;30314;48.184;11.510;2023-05-14T12:11:51;12.33;;;9.27;;
7661;SDS011;30314;48.184;11.510;2023-05-14T12:14:19;12.27;;;8.13;;
7661;SDS011;30314;48.184;11.510;2023-05-14T12:16:47;12.13;;;8.03;;
7661;SDS011;30314;48.184;11.510;2023-05-14T12:19:16;8.57;;;6.80;;
7661;SDS011;30314;48.184;11.510;2023-05-14T12:21:46;12.20;;;7.60;;
7661;SDS011;30314;48.184;11.510;2023-05-14T12:24:14;11.30;;;8.07;;
7661;SDS011;30314;48.184;11.510;2023-05-14T12:26:46;9.93;;;7.77;;
7661;SDS011;30314;48.184;11.510;2023-05-14T12:29:15;11.20;;;9.07;;
7661;SDS011;30314;48.184;11.510;2023-05-14T12:31:45;10.37;;;8.07;;
7661;SDS011;30314;48.184;11.510;2023-05-14T12:34:13;10.67;;;8.13;;
7661;SDS011;30314;48.184;11.510;2023-05-14T12:36:41;9.77;;;7.13;;
7661;SDS011;30314;48.184;11.510;2023-05-14T12:39:08;7.90;;;6.33;;
7661;SDS011;30314;48.184;11.510;2023-05-14T12:41:36;9.37;;;6.73;;
7661;SDS011;30314;48.184;11.510;2023-05-14T12:44:03;9.63;;;6.87;;
7661;SDS011;30314;48.184;11.510;2023-05-14T12:46:30;10.90;;;8.27;;
7661;SDS011;30314;48.184;11.510;2023-05-14T12:48:58;11.03;;;7.53;;
7661;SDS011;30314;48.184;11.510;2023-05-14T12:51:25;10.07;;;7.80;;
7661;SDS011;30314;48.184;11.510;2023-05-14T12:53:51;14.93;;;7.37;;
7661;SDS011;30314;48.184;11.510;2023-05-14T12:56:19;8.37;;;7.07;;
7661;SDS011;30314;48.184;11.510;2023-05-14T12:58:47;7.73;;;6.70;;
7661;SDS011;30314;48.184;11.510;2023-05-14T13:01:13;7.10;;;5.40;;
7661;SDS011;30314;48.184;11.510;2023-05-14T13:03:40;10.40;;;6.47;;
7661;SDS011;30314;48.184;11.510;2023-05-14T13:06:06;9.97;;;6.30;;
7661;SDS011;30314;48.184;11.510;2023-05-14T13:08:33;6.80;;;5.37;;
7661;SDS011;30314;48.184;11.510;2023-05-14T13:11:00;8.27;;;6.50;;
7661;SDS011;30314;48.184;11.510;2023-05-14T13:13:27;8.40;;;6.30;;
7661;SDS011;30314;48.184;11.510;2023-05-14T13:15:53;7.80;;;7.00;;
7661;SDS011;30314;48.184;11.510;2023-05-14T13:18:20;8.83;;;6.00;;
7661;SDS011;30314;48.184;11.510;2023-05-14T13:20:47;10.20;;;6.77;;
7661;SDS011;30314;48.184;11.510;2023-05-14T13:23:14;6.80;;;5.60;;
7661;SDS011;30314;48.184;11.510;2023-05-14T13:25:40;7.47;;;4.90;;
7661;SDS011;30314;48.184;11.510;2023-05-14T13:28:07;8.90;;;5.20;;
7661;SDS011;30314;48.184;11.510;2023-05-14T13:30:34;6.87;;;5.77;;
7661;SDS011;30314;48.184;11.510;2023-05-14T13:33:01;7.33;;;5.50;;
7661;SDS011;30314;48.184;11.510;2023-05-14T13:35:27;7.17;;;4.90;;
7661;SDS011;30314;48.184;11.510;2023-05-14T13:37:54;6.43;;;4.70;;
7661;SDS011;30314;48.184;11.510;2023-05-14T13:40:20;5.53;;;4.43;;
7661;SDS011;30314;48.184;11.510;2023-05-14T13:42:47;7.03;;;5.23;;
7661;SDS011;30314;48.184;11.510;2023-05-14T13:45:14;8.03;;;5.07;;
7661;SDS011;30314;48.184;11.510;2023-05-14T13:47:40;6.30;;;5.10;;
7661;SDS011;30314;48.184;11.510;2023-05-14T13:50:07;7.20;;;5.63;;
7661;SDS011;30314;48.184;11.510;2023-05-14T13:52:34;8.07;;;5.70;;
7661;SDS011;30314;48.184;11.510;2023-05-14T13:55:01;7.20;;;4.80;;
7661;SDS011;30314;48.184;11.510;2023-05-14T13:57:27;3.93;;;3.30;;
7661;SDS011;30314;48.184;11.510;2023-05-14T13:59:54;8.30;;;4.00;;
7661;SDS011;30314;48.184;11.510;2023-05-14T14:02:21;5.10;;;3.40;;
7661;SDS011;30314;48.184;11.510;2023-05-14T14:04:47;6.07;;;3.37;;
7661;SDS011;30314;48.184;11.510;2023-05-14T14:07:14;6.23;;;4.20;;
7661;SDS011;30314;48.184;11.510;2023-05-14T14:09:41;4.90;;;3.47;;
7661;SDS011;30314;48.184;11.510;2023-05-14T14:12:07;8.17;;;5.40;;
7661;SDS011;30314;48.184;11.510;2023-05-14T14:14:34;5.93;;;4.07;;
7661;SDS011;30314;48.184;11.510;2023-05-14T14:17:01;6.53;;;4.27;;
7661;SDS011;30314;48.184;11.510;2023-05-14T14:19:27;5.70;;;4.30;;
7661;SDS011;30314;48.184;11.510;2023-05-14T14:21:54;4.67;;;3.73;;
7661;SDS011;30314;48.184;11.510;2023-05-14T14:24:21;5.00;;;4.00;;
7661;SDS011;30314;48.184;11.510;2023-05-14T14:26:47;5.47;;;3.47;;
7661;SDS011;30314;48.184;11.510;2023-05-14T14:29:14;3.53;;;2.53;;
7661;SDS011;30314;48.184;11.510;2023-05-14T14:31:40;4.10;;;3.03;;
7661;SDS011;30314;48.184;11.510;2023-05-14T14:34:08;4.10;;;3.00;;
7661;SDS011;30314;48.184;11.510;2023-05-14T14:36:35;5.10;;;3.97;;
7661;SDS011;30314;48.184;11.510;2023-05-14T14:39:01;5.40;;;3.97;;
7661;SDS011;30314;48.184;11.510;2023-05-14T14:41:28;5.70;;;3.97;;
7661;SDS011;30314;48.184;11.510;2023-05-14T14:43:55;4.10;;;3.30;;